sensor_id;sensor_type;location;lat;lon;timestamp;P1;durP1;ratioP1;P2;durP2;ratioP2
19969;SDS011;10146;47.754;9.566;2024-03-23T00:55:11;6.22;;;5.63;;
19969;SDS011;10146;47.754;9.566;2024-03-23T00:57:37;5.38;;;4.88;;
19969;SDS011;10146;47.754;9.566;2024-03-23T01:00:02;5.70;;;4.82;;
19969;SDS011;10146;47.754;9.566;2024-03-23T01:02:30;5.90;;;5.30;;
19969;SDS011;10146;47.754;9.566;2024-03-23T01:04:59;7.25;;;4.60;;
19969;SDS011;10146;47.754;9.566;2024-03-23T01:07:25;7.38;;;5.43;;
19969;SDS011;10146;47.754;9.566;2024-03-23T01:09:50;6.15;;;4.95;;
19969;SDS011;10146;47.754;9.566;2024-03-23T01:12:17;5.40;;;4.90;;
19969;SDS011;10146;47.754;9.566;2024-03-23T01:14:42;6.13;;;5.20;;
19969;SDS011;10146;47.754;9.566;2024-03-23T01:17:08;7.43;;;5.53;;
19969;SDS011;10146;47.754;9.566;2024-03-23T01:19:33;6.63;;;5.78;;
19969;SDS011;10146;47.754;9.566;2024-03-23T01:21:59;6.50;;;5.35;;
19969;SDS011;10146;47.754;9.566;2024-03-23T01:24:25;5.72;;;5.22;;
19969;SDS011;10146;47.754;9.566;2024-03-23T01:26:51;6.40;;;5.80;;
19969;SDS011;10146;47.754;9.566;2024-03-23T01:29:16;6.20;;;5.60;;
19969;SDS011;10146;47.754;9.566;2024-03-23T01:31:42;6.40;;;5.80;;
19969;SDS011;10146;47.754;9.566;2024-03-23T01:34:07;6.53;;;5.82;;
19969;SDS011;10146;47.754;9.566;2024-03-23T01:36:33;7.60;;;5.38;;
19969;SDS011;10146;47.754;9.566;2024-03-23T01:38:58;8.02;;;6.40;;
19969;SDS011;10146;47.754;9.566;2024-03-23T01:41:24;6.40;;;5.88;;
19969;SDS011;10146;47.754;9.566;2024-03-23T01:43:50;6.93;;;6.10;;
19969;SDS011;10146;47.754;9.566;2024-03-23T01:46:16;6.22;;;5.63;;
19969;SDS011;10146;47.754;9.566;2024-03-23T01:48:42;7.07;;;5.90;;
19969;SDS011;10146;47.754;9.566;2024-03-23T01:51:07;6.82;;;6.15;;
19969;SDS011;10146;47.754;9.566;2024-03-23T01:53:34;7.93;;;5.85;;
19969;SDS011;10146;47.754;9.566;2024-03-23T01:55:59;8.00;;;5.70;;
19969;SDS011;10146;47.754;9.566;2024-03-23T01:58:27;6.47;;;5.88;;
19969;SDS011;10146;47.754;9.566;2024-03-23T02:00:53;6.82;;;6.03;;
19969;SDS011;10146;47.754;9.566;2024-03-23T02:03:22;6.60;;;5.93;;
19969;SDS011;10146;47.754;9.566;2024-03-23T02:05:51;7.35;;;5.40;;
19969;SDS011;10146;47.754;9.566;2024-03-23T02:08:18;5.88;;;5.28;;
19969;SDS011;10146;47.754;9.566;2024-03-23T02:10:46;6.97;;;5.93;;
19969;SDS011;10146;47.754;9.566;2024-03-23T02:13:13;6.07;;;5.57;;
19969;SDS011;10146;47.754;9.566;2024-03-23T02:15:39;8.13;;;6.10;;
19969;SDS011;10146;47.754;9.566;2024-03-23T02:18:06;6.47;;;5.63;;
19969;SDS011;10146;47.754;9.566;2024-03-23T02:20:33;8.23;;;5.53;;
19969;SDS011;10146;47.754;9.566;2024-03-23T02:22:58;5.70;;;5.20;;
19969;SDS011;10146;47.754;9.566;2024-03-23T02:25:24;7.30;;;5.13;;
19969;SDS011;10146;47.754;9.566;2024-03-23T02:27:49;8.82;;;5.47;;
19969;SDS011;10146;47.754;9.566;2024-03-23T02:30:15;7.10;;;5.32;;
19969;SDS011;10146;47.754;9.566;2024-03-23T02:32:41;5.10;;;4.63;;
19969;SDS011;10146;47.754;9.566;2024-03-23T02:35:06;5.72;;;5.22;;
19969;SDS011;10146;47.754;9.566;2024-03-23T02:37:32;5.40;;;4.80;;
19969;SDS011;10146;47.754;9.566;2024-03-23T02:39:58;7.05;;;5.30;;
19969;SDS011;10146;47.754;9.566;2024-03-23T02:42:23;5.30;;;4.65;;
19969;SDS011;10146;47.754;9.566;2024-03-23T02:44:49;5.55;;;5.05;;
19969;SDS011;10146;47.754;9.566;2024-03-23T02:47:14;6.15;;;4.80;;
19969;SDS011;10146;47.754;9.566;2024-03-23T02:49:40;7.03;;;5.30;;
19969;SDS011;10146;47.754;9.566;2024-03-23T02:52:05;6.57;;;5.65;;
19969;SDS011;10146;47.754;9.566;2024-03-23T02:54:31;7.15;;;5.57;;
19969;SDS011;10146;47.754;9.566;2024-03-23T02:56:57;5.97;;;5.25;;
19969;SDS011;10146;47.754;9.566;2024-03-23T02:59:22;6.03;;;5.43;;
19969;SDS011;10146;47.754;9.566;2024-03-23T03:01:48;5.50;;;5.00;;
19969;SDS011;10146;47.754;9.566;2024-03-23T03:04:13;5.80;;;5.20;;
19969;SDS011;10146;47.754;9.566;2024-03-23T03:06:39;6.47;;;5.43;;
19969;SDS011;10146;47.754;9.566;2024-03-23T03:09:05;6.00;;;4.50;;
19969;SDS011;10146;47.754;9.566;2024-03-23T03:11:31;5.75;;;4.78;;
19969;SDS011;10146;47.754;9.566;2024-03-23T03:13:57;5.32;;;4.82;;
19969;SDS011;10146;47.754;9.566;2024-03-23T03:16:25;5.10;;;4.60;;
19969;SDS011;10146;47.754;9.566;2024-03-23T03:18:51;5.57;;;5.00;;
19969;SDS011;10146;47.754;9.566;2024-03-23T03:21:17;7.53;;;5.38;;
19969;SDS011;10146;47.754;9.566;2024-03-23T03:23:44;6.10;;;5.00;;
19969;SDS011;10146;47.754;9.566;2024-03-23T03:26:10;6.07;;;5.47;;
19969;SDS011;10146;47.754;9.566;2024-03-23T03:28:35;6.90;;;5.60;;
19969;SDS011;10146;47.754;9.566;2024-03-23T03:31:01;6.00;;;5.20;;
19969;SDS011;10146;47.754;9.566;2024-03-23T03:33:27;8.13;;;5.93;;
19969;SDS011;10146;47.754;9.566;2024-03-23T03:35:53;6.00;;;5.00;;
19969;SDS011;10146;47.754;9.566;2024-03-23T03:38:19;7.55;;;6.03;;
19969;SDS011;10146;47.754;9.566;2024-03-23T03:40:44;5.75;;;5.10;;
19969;SDS011;10146;47.754;9.566;2024-03-23T03:43:10;5.60;;;5.10;;
19969;SDS011;10146;47.754;9.566;2024-03-23T03:45:36;6.88;;;4.97;;
19969;SDS011;10146;47.754;9.566;2024-03-23T03:48:02;5.18;;;4.68;;
19969;SDS011;10146;47.754;9.566;2024-03-23T03:50:27;5.10;;;4.43;;
19969;SDS011;10146;47.754;9.566;2024-03-23T03:52:53;5.32;;;4.82;;
19969;SDS011;10146;47.754;9.566;2024-03-23T03:55:19;5.40;;;4.88;;
19969;SDS011;10146;47.754;9.566;2024-03-23T03:57:44;7.15;;;4.97;;
19969;SDS011;10146;47.754;9.566;2024-03-23T04:00:10;4.75;;;4.10;;
19969;SDS011;10146;47.754;9.566;2024-03-23T04:02:39;4.50;;;3.90;;
19969;SDS011;10146;47.754;9.566;2024-03-23T04:05:05;5.82;;;4.38;;
19969;SDS011;10146;47.754;9.566;2024-03-23T04:07:31;4.50;;;4.10;;
19969;SDS011;10146;47.754;9.566;2024-03-23T04:09:57;4.75;;;4.25;;
19969;SDS011;10146;47.754;9.566;2024-03-23T04:12:23;4.93;;;4.45;;
19969;SDS011;10146;47.754;9.566;2024-03-23T04:14:48;5.25;;;4.30;;
19969;SDS011;10146;47.754;9.566;2024-03-23T04:17:14;5.45;;;4.85;;
19969;SDS011;10146;47.754;9.566;2024-03-23T04:19:40;5.57;;;4.43;;
19969;SDS011;10146;47.754;9.566;2024-03-23T04:22:06;5.28;;;4.68;;
19969;SDS011;10146;47.754;9.566;2024-03-23T04:24:31;4.90;;;4.40;;
19969;SDS011;10146;47.754;9.566;2024-03-23T04:26:57;5.00;;;4.55;;
19969;SDS011;10146;47.754;9.566;2024-03-23T04:29:23;5.30;;;4.60;;
19969;SDS011;10146;47.754;9.566;2024-03-23T04:31:48;5.03;;;4.53;;
19969;SDS011;10146;47.754;9.566;2024-03-23T04:34:14;5.63;;;5.00;;
19969;SDS011;10146;47.754;9.566;2024-03-23T04:36:39;5.45;;;4.80;;
19969;SDS011;10146;47.754;9.566;2024-03-23T04:39:05;5.43;;;4.93;;
19969;SDS011;10146;47.754;9.566;2024-03-23T04:41:33;5.22;;;4.47;;
19969;SDS011;10146;47.754;9.566;2024-03-23T04:44:00;5.47;;;4.70;;
19969;SDS011;10146;47.754;9.566;2024-03-23T04:46:26;5.80;;;4.10;;
19969;SDS011;10146;47.754;9.566;2024-03-23T04:48:51;5.68;;;4.25;;
19969;SDS011;10146;47.754;9.566;2024-03-23T04:51:23;6.45;;;4.03;;
19969;SDS011;10146;47.754;9.566;2024-03-23T04:53:49;6.13;;;4.65;;
19969;SDS011;10146;47.754;9.566;2024-03-23T04:56:15;5.47;;;4.47;;
19969;SDS011;10146;47.754;9.566;2024-03-23T04:58:41;5.47;;;4.50;;
19969;SDS011;10146;47.754;9.566;2024-03-23T05:01:08;4.55;;;4.05;;
19969;SDS011;10146;47.754;9.566;2024-03-23T05:03:34;5.65;;;4.55;;
19969;SDS011;10146;47.754;9.566;2024-03-23T05:05:59;7.10;;;4.20;;
19969;SDS011;10146;47.754;9.566;2024-03-23T05:08:25;4.70;;;4.30;;
19969;SDS011;10146;47.754;9.566;2024-03-23T05:10:51;5.10;;;4.50;;
19969;SDS011;10146;47.754;9.566;2024-03-23T05:13:16;5.70;;;4.30;;
19969;SDS011;10146;47.754;9.566;2024-03-23T05:15:43;4.72;;;4.28;;
19969;SDS011;10146;47.754;9.566;2024-03-23T05:18:08;4.88;;;3.88;;
19969;SDS011;10146;47.754;9.566;2024-03-23T05:20:34;4.65;;;4.13;;
19969;SDS011;10146;47.754;9.566;2024-03-23T05:22:59;4.43;;;3.70;;
19969;SDS011;10146;47.754;9.566;2024-03-23T05:25:25;6.60;;;4.07;;
19969;SDS011;10146;47.754;9.566;2024-03-23T05:27:51;6.07;;;3.90;;
19969;SDS011;10146;47.754;9.566;2024-03-23T05:30:16;7.43;;;4.25;;
19969;SDS011;10146;47.754;9.566;2024-03-23T05:32:42;6.40;;;4.70;;
19969;SDS011;10146;47.754;9.566;2024-03-23T05:35:08;6.45;;;4.68;;
19969;SDS011;10146;47.754;9.566;2024-03-23T05:37:34;4.85;;;4.35;;
19969;SDS011;10146;47.754;9.566;2024-03-23T05:40:00;4.75;;;4.00;;
19969;SDS011;10146;47.754;9.566;2024-03-23T05:42:26;7.10;;;4.70;;
19969;SDS011;10146;47.754;9.566;2024-03-23T05:44:52;5.20;;;4.70;;
19969;SDS011;10146;47.754;9.566;2024-03-23T05:47:17;6.50;;;4.60;;
19969;SDS011;10146;47.754;9.566;2024-03-23T05:49:43;5.05;;;4.53;;
19969;SDS011;10146;47.754;9.566;2024-03-23T05:52:11;5.35;;;4.25;;
19969;SDS011;10146;47.754;9.566;2024-03-23T05:54:36;5.57;;;4.20;;
19969;SDS011;10146;47.754;9.566;2024-03-23T05:57:02;5.85;;;4.80;;
19969;SDS011;10146;47.754;9.566;2024-03-23T05:59:28;6.22;;;4.75;;
19969;SDS011;10146;47.754;9.566;2024-03-23T06:01:54;5.20;;;4.70;;
19969;SDS011;10146;47.754;9.566;2024-03-23T06:04:19;5.10;;;4.60;;
19969;SDS011;10146;47.754;9.566;2024-03-23T06:06:46;5.38;;;4.60;;
19969;SDS011;10146;47.754;9.566;2024-03-23T06:09:12;5.20;;;4.80;;
19969;SDS011;10146;47.754;9.566;2024-03-23T06:11:37;6.35;;;4.55;;
19969;SDS011;10146;47.754;9.566;2024-03-23T06:14:03;5.47;;;3.80;;
19969;SDS011;10146;47.754;9.566;2024-03-23T06:16:29;4.35;;;3.83;;
19969;SDS011;10146;47.754;9.566;2024-03-23T06:18:55;4.55;;;4.07;;
19969;SDS011;10146;47.754;9.566;2024-03-23T06:21:21;4.15;;;3.65;;
19969;SDS011;10146;47.754;9.566;2024-03-23T06:23:50;4.63;;;3.88;;
19969;SDS011;10146;47.754;9.566;2024-03-23T06:26:18;3.85;;;3.55;;
19969;SDS011;10146;47.754;9.566;2024-03-23T06:28:44;3.72;;;3.42;;
19969;SDS011;10146;47.754;9.566;2024-03-23T06:31:10;4.20;;;3.70;;
19969;SDS011;10146;47.754;9.566;2024-03-23T06:33:36;3.70;;;3.13;;
19969;SDS011;10146;47.754;9.566;2024-03-23T06:36:01;3.13;;;2.72;;
19969;SDS011;10146;47.754;9.566;2024-03-23T06:38:28;6.45;;;3.45;;
19969;SDS011;10146;47.754;9.566;2024-03-23T06:40:53;5.00;;;3.42;;
19969;SDS011;10146;47.754;9.566;2024-03-23T06:43:19;4.28;;;3.60;;
19969;SDS011;10146;47.754;9.566;2024-03-23T06:45:51;6.05;;;4.00;;
19969;SDS011;10146;47.754;9.566;2024-03-23T06:48:20;6.68;;;3.30;;
19969;SDS011;10146;47.754;9.566;2024-03-23T06:50:46;4.38;;;3.95;;
19969;SDS011;10146;47.754;9.566;2024-03-23T06:53:13;4.75;;;4.20;;
19969;SDS011;10146;47.754;9.566;2024-03-23T06:55:38;6.30;;;4.25;;
19969;SDS011;10146;47.754;9.566;2024-03-23T06:58:04;5.22;;;4.53;;
19969;SDS011;10146;47.754;9.566;2024-03-23T07:00:30;4.93;;;4.10;;
19969;SDS011;10146;47.754;9.566;2024-03-23T07:02:57;6.25;;;4.18;;
19969;SDS011;10146;47.754;9.566;2024-03-23T07:05:23;7.60;;;4.97;;
19969;SDS011;10146;47.754;9.566;2024-03-23T07:07:48;4.60;;;4.20;;
19969;SDS011;10146;47.754;9.566;2024-03-23T07:10:14;4.90;;;4.40;;
19969;SDS011;10146;47.754;9.566;2024-03-23T07:12:39;4.88;;;4.45;;
19969;SDS011;10146;47.754;9.566;2024-03-23T07:15:05;5.05;;;4.55;;
19969;SDS011;10146;47.754;9.566;2024-03-23T07:17:31;5.15;;;4.65;;
19969;SDS011;10146;47.754;9.566;2024-03-23T07:19:58;5.35;;;4.35;;
19969;SDS011;10146;47.754;9.566;2024-03-23T07:22:23;5.65;;;4.25;;
19969;SDS011;10146;47.754;9.566;2024-03-23T07:24:49;4.82;;;4.43;;
19969;SDS011;10146;47.754;9.566;2024-03-23T07:27:15;4.80;;;3.95;;
19969;SDS011;10146;47.754;9.566;2024-03-23T07:29:40;4.25;;;3.80;;
19969;SDS011;10146;47.754;9.566;2024-03-23T07:32:06;4.57;;;3.58;;
19969;SDS011;10146;47.754;9.566;2024-03-23T07:34:31;4.15;;;3.75;;
19969;SDS011;10146;47.754;9.566;2024-03-23T07:36:57;3.90;;;3.40;;
19969;SDS011;10146;47.754;9.566;2024-03-23T07:39:22;4.82;;;3.90;;
19969;SDS011;10146;47.754;9.566;2024-03-23T07:41:48;4.32;;;3.83;;
19969;SDS011;10146;47.754;9.566;2024-03-23T07:44:13;5.13;;;4.20;;
19969;SDS011;10146;47.754;9.566;2024-03-23T07:46:39;5.07;;;3.80;;
19969;SDS011;10146;47.754;9.566;2024-03-23T07:49:05;3.90;;;3.58;;
19969;SDS011;10146;47.754;9.566;2024-03-23T07:51:30;4.38;;;3.97;;
19969;SDS011;10146;47.754;9.566;2024-03-23T07:53:56;4.00;;;3.60;;
19969;SDS011;10146;47.754;9.566;2024-03-23T07:56:22;4.15;;;3.75;;
19969;SDS011;10146;47.754;9.566;2024-03-23T07:58:48;4.75;;;4.00;;
19969;SDS011;10146;47.754;9.566;2024-03-23T08:01:15;4.43;;;3.65;;
19969;SDS011;10146;47.754;9.566;2024-03-23T08:03:42;4.10;;;3.78;;
19969;SDS011;10146;47.754;9.566;2024-03-23T08:06:14;4.07;;;3.65;;
19969;SDS011;10146;47.754;9.566;2024-03-23T08:08:44;3.92;;;3.53;;
19969;SDS011;10146;47.754;9.566;2024-03-23T08:11:10;4.38;;;3.70;;
19969;SDS011;10146;47.754;9.566;2024-03-23T08:13:38;4.00;;;3.60;;
19969;SDS011;10146;47.754;9.566;2024-03-23T08:16:05;4.20;;;3.80;;
19969;SDS011;10146;47.754;9.566;2024-03-23T08:18:31;4.65;;;3.85;;
19969;SDS011;10146;47.754;9.566;2024-03-23T08:23:26;5.63;;;4.30;;
19969;SDS011;10146;47.754;9.566;2024-03-23T08:26:03;4.68;;;4.28;;
19969;SDS011;10146;47.754;9.566;2024-03-23T08:28:30;5.47;;;4.97;;
19969;SDS011;10146;47.754;9.566;2024-03-23T08:31:03;4.50;;;4.10;;
19969;SDS011;10146;47.754;9.566;2024-03-23T08:33:30;3.78;;;3.42;;
19969;SDS011;10146;47.754;9.566;2024-03-23T08:36:00;2.75;;;2.53;;
19969;SDS011;10146;47.754;9.566;2024-03-23T08:38:28;2.08;;;1.83;;
19969;SDS011;10146;47.754;9.566;2024-03-23T08:41:07;2.60;;;1.77;;
19969;SDS011;10146;47.754;9.566;2024-03-23T08:43:37;1.40;;;1.30;;
19969;SDS011;10146;47.754;9.566;2024-03-23T08:46:13;1.40;;;1.30;;
19969;SDS011;10146;47.754;9.566;2024-03-23T08:48:43;1.13;;;1.00;;
19969;SDS011;10146;47.754;9.566;2024-03-23T08:51:11;1.30;;;1.20;;
19969;SDS011;10146;47.754;9.566;2024-03-23T08:53:37;1.15;;;1.05;;
19969;SDS011;10146;47.754;9.566;2024-03-23T08:56:04;1.23;;;1.13;;
19969;SDS011;10146;47.754;9.566;2024-03-23T08:58:31;0.82;;;0.65;;
19969;SDS011;10146;47.754;9.566;2024-03-23T09:01:08;0.70;;;0.60;;
19969;SDS011;10146;47.754;9.566;2024-03-23T09:03:35;0.40;;;0.40;;
19969;SDS011;10146;47.754;9.566;2024-03-23T09:06:02;0.90;;;0.30;;
19969;SDS011;10146;47.754;9.566;2024-03-23T09:08:38;0.30;;;0.30;;
19969;SDS011;10146;47.754;9.566;2024-03-23T09:11:06;0.45;;;0.30;;
19969;SDS011;10146;47.754;9.566;2024-03-23T09:13:33;0.30;;;0.30;;
19969;SDS011;10146;47.754;9.566;2024-03-23T09:15:59;0.40;;;0.30;;
19969;SDS011;10146;47.754;9.566;2024-03-23T09:18:25;0.68;;;0.40;;
19969;SDS011;10146;47.754;9.566;2024-03-23T09:20:50;0.55;;;0.40;;
19969;SDS011;10146;47.754;9.566;2024-03-23T09:23:18;0.50;;;0.40;;
19969;SDS011;10146;47.754;9.566;2024-03-23T09:25:44;0.40;;;0.40;;
19969;SDS011;10146;47.754;9.566;2024-03-23T09:28:09;0.40;;;0.40;;
19969;SDS011;10146;47.754;9.566;2024-03-23T09:30:35;0.70;;;0.50;;
19969;SDS011;10146;47.754;9.566;2024-03-23T09:33:07;0.82;;;0.35;;
19969;SDS011;10146;47.754;9.566;2024-03-23T09:35:39;0.30;;;0.25;;
19969;SDS011;10146;47.754;9.566;2024-03-23T09:38:05;0.30;;;0.30;;
19969;SDS011;10146;47.754;9.566;2024-03-23T09:40:43;0.20;;;0.20;;
19969;SDS011;10146;47.754;9.566;2024-03-23T09:43:09;0.75;;;0.40;;
19969;SDS011;10146;47.754;9.566;2024-03-23T09:45:36;0.45;;;0.20;;
19969;SDS011;10146;47.754;9.566;2024-03-23T09:48:04;0.30;;;0.30;;
19969;SDS011;10146;47.754;9.566;2024-03-23T09:50:32;0.45;;;0.30;;
19969;SDS011;10146;47.754;9.566;2024-03-23T09:52:57;0.55;;;0.50;;
19969;SDS011;10146;47.754;9.566;2024-03-23T09:55:23;2.58;;;1.42;;
19969;SDS011;10146;47.754;9.566;2024-03-23T09:57:49;0.30;;;0.30;;
19969;SDS011;10146;47.754;9.566;2024-03-23T10:00:15;2.63;;;0.40;;
19969;SDS011;10146;47.754;9.566;2024-03-23T10:02:41;1.13;;;0.50;;
19969;SDS011;10146;47.754;9.566;2024-03-23T10:05:22;0.63;;;0.30;;
19969;SDS011;10146;47.754;9.566;2024-03-23T10:07:52;1.27;;;0.43;;
19969;SDS011;10146;47.754;9.566;2024-03-23T10:10:17;0.63;;;0.40;;
19969;SDS011;10146;47.754;9.566;2024-03-23T10:12:45;0.68;;;0.40;;
19969;SDS011;10146;47.754;9.566;2024-03-23T10:15:21;0.93;;;0.55;;
19969;SDS011;10146;47.754;9.566;2024-03-23T10:17:50;2.05;;;0.60;;
19969;SDS011;10146;47.754;9.566;2024-03-23T10:20:20;0.90;;;0.50;;
19969;SDS011;10146;47.754;9.566;2024-03-23T10:22:52;1.05;;;0.60;;
19969;SDS011;10146;47.754;9.566;2024-03-23T10:25:17;2.47;;;0.70;;
19969;SDS011;10146;47.754;9.566;2024-03-23T10:27:57;0.95;;;0.70;;
19969;SDS011;10146;47.754;9.566;2024-03-23T10:30:24;2.53;;;0.93;;
19969;SDS011;10146;47.754;9.566;2024-03-23T10:32:55;1.77;;;0.90;;
19969;SDS011;10146;47.754;9.566;2024-03-23T10:35:32;2.67;;;1.00;;
19969;SDS011;10146;47.754;9.566;2024-03-23T10:37:57;3.53;;;1.35;;
19969;SDS011;10146;47.754;9.566;2024-03-23T10:40:23;2.47;;;1.00;;
19969;SDS011;10146;47.754;9.566;2024-03-23T10:42:49;4.82;;;1.23;;
19969;SDS011;10146;47.754;9.566;2024-03-23T10:45:17;2.70;;;1.27;;
19969;SDS011;10146;47.754;9.566;2024-03-23T10:47:43;2.35;;;1.13;;
19969;SDS011;10146;47.754;9.566;2024-03-23T10:50:08;19.20;;;8.70;;
19969;SDS011;10146;47.754;9.566;2024-03-23T10:52:34;5.65;;;2.92;;
19969;SDS011;10146;47.754;9.566;2024-03-23T10:55:01;2.63;;;1.23;;
19969;SDS011;10146;47.754;9.566;2024-03-23T10:57:34;2.72;;;1.50;;
19969;SDS011;10146;47.754;9.566;2024-03-23T11:00:17;2.85;;;1.58;;
19969;SDS011;10146;47.754;9.566;2024-03-23T11:02:43;3.45;;;1.13;;
19969;SDS011;10146;47.754;9.566;2024-03-23T11:07:49;2.67;;;1.40;;
19969;SDS011;10146;47.754;9.566;2024-03-23T11:10:26;2.50;;;1.38;;
19969;SDS011;10146;47.754;9.566;2024-03-23T11:12:54;2.25;;;1.48;;
19969;SDS011;10146;47.754;9.566;2024-03-23T11:15:19;1.88;;;1.10;;
19969;SDS011;10146;47.754;9.566;2024-03-23T11:18:04;2.58;;;1.00;;
19969;SDS011;10146;47.754;9.566;2024-03-23T11:20:33;2.53;;;1.10;;
19969;SDS011;10146;47.754;9.566;2024-03-23T11:22:59;2.95;;;1.27;;
19969;SDS011;10146;47.754;9.566;2024-03-23T11:25:26;2.20;;;1.10;;
19969;SDS011;10146;47.754;9.566;2024-03-23T11:27:56;1.92;;;1.17;;
19969;SDS011;10146;47.754;9.566;2024-03-23T11:30:26;1.50;;;1.10;;
19969;SDS011;10146;47.754;9.566;2024-03-23T11:32:54;1.80;;;0.80;;
19969;SDS011;10146;47.754;9.566;2024-03-23T11:35:31;1.85;;;1.00;;
19969;SDS011;10146;47.754;9.566;2024-03-23T11:38:12;2.28;;;0.88;;
19969;SDS011;10146;47.754;9.566;2024-03-23T11:40:42;1.40;;;0.73;;
19969;SDS011;10146;47.754;9.566;2024-03-23T11:43:11;1.42;;;0.68;;
19969;SDS011;10146;47.754;9.566;2024-03-23T11:48:15;0.85;;;0.80;;
19969;SDS011;10146;47.754;9.566;2024-03-23T11:50:48;3.08;;;1.15;;
19969;SDS011;10146;47.754;9.566;2024-03-23T11:53:16;2.50;;;0.80;;
19969;SDS011;10146;47.754;9.566;2024-03-23T11:55:42;1.90;;;1.10;;
19969;SDS011;10146;47.754;9.566;2024-03-23T11:58:12;2.35;;;1.20;;
19969;SDS011;10146;47.754;9.566;2024-03-23T12:00:38;2.92;;;1.00;;
19969;SDS011;10146;47.754;9.566;2024-03-23T12:03:04;3.85;;;1.40;;
19969;SDS011;10146;47.754;9.566;2024-03-23T12:05:31;4.43;;;1.50;;
19969;SDS011;10146;47.754;9.566;2024-03-23T12:10:44;2.65;;;1.10;;
19969;SDS011;10146;47.754;9.566;2024-03-23T12:13:10;5.35;;;1.10;;
19969;SDS011;10146;47.754;9.566;2024-03-23T12:15:36;2.20;;;1.08;;
19969;SDS011;10146;47.754;9.566;2024-03-23T12:18:08;3.67;;;1.05;;
19969;SDS011;10146;47.754;9.566;2024-03-23T12:20:35;3.25;;;1.35;;
19969;SDS011;10146;47.754;9.566;2024-03-23T12:23:08;3.25;;;1.40;;
19969;SDS011;10146;47.754;9.566;2024-03-23T12:25:37;4.90;;;1.40;;
19969;SDS011;10146;47.754;9.566;2024-03-23T12:28:04;4.38;;;1.60;;
19969;SDS011;10146;47.754;9.566;2024-03-23T12:30:34;3.28;;;1.25;;
19969;SDS011;10146;47.754;9.566;2024-03-23T12:33:01;3.47;;;1.10;;
19969;SDS011;10146;47.754;9.566;2024-03-23T12:35:28;3.50;;;1.40;;
19969;SDS011;10146;47.754;9.566;2024-03-23T12:37:53;3.58;;;1.73;;
19969;SDS011;10146;47.754;9.566;2024-03-23T12:40:19;3.83;;;1.40;;
19969;SDS011;10146;47.754;9.566;2024-03-23T12:42:44;4.03;;;1.25;;
19969;SDS011;10146;47.754;9.566;2024-03-23T12:45:10;5.40;;;1.67;;
19969;SDS011;10146;47.754;9.566;2024-03-23T12:47:36;4.78;;;1.50;;
19969;SDS011;10146;47.754;9.566;2024-03-23T12:50:01;3.40;;;1.10;;
19969;SDS011;10146;47.754;9.566;2024-03-23T12:52:27;3.92;;;1.75;;
19969;SDS011;10146;47.754;9.566;2024-03-23T12:54:55;4.45;;;1.73;;
19969;SDS011;10146;47.754;9.566;2024-03-23T12:57:22;4.57;;;1.40;;
19969;SDS011;10146;47.754;9.566;2024-03-23T12:59:51;3.28;;;1.38;;
19969;SDS011;10146;47.754;9.566;2024-03-23T13:02:20;5.68;;;1.60;;
19969;SDS011;10146;47.754;9.566;2024-03-23T13:04:49;4.45;;;1.63;;
19969;SDS011;10146;47.754;9.566;2024-03-23T13:07:16;4.50;;;1.50;;
19969;SDS011;10146;47.754;9.566;2024-03-23T13:09:43;2.92;;;1.30;;
19969;SDS011;10146;47.754;9.566;2024-03-23T13:12:09;3.53;;;1.50;;
19969;SDS011;10146;47.754;9.566;2024-03-23T13:14:35;3.10;;;1.50;;
19969;SDS011;10146;47.754;9.566;2024-03-23T13:17:00;3.97;;;1.38;;
19969;SDS011;10146;47.754;9.566;2024-03-23T13:19:27;4.63;;;1.35;;
19969;SDS011;10146;47.754;9.566;2024-03-23T13:21:55;2.80;;;1.17;;
19969;SDS011;10146;47.754;9.566;2024-03-23T13:24:22;1.63;;;0.98;;
19969;SDS011;10146;47.754;9.566;2024-03-23T13:26:49;1.73;;;0.90;;
19969;SDS011;10146;47.754;9.566;2024-03-23T13:29:15;2.15;;;0.70;;
19969;SDS011;10146;47.754;9.566;2024-03-23T13:31:41;1.02;;;0.80;;
19969;SDS011;10146;47.754;9.566;2024-03-23T13:34:06;1.40;;;0.90;;
19969;SDS011;10146;47.754;9.566;2024-03-23T13:36:32;1.25;;;0.68;;
19969;SDS011;10146;47.754;9.566;2024-03-23T13:38:58;1.15;;;0.70;;
19969;SDS011;10146;47.754;9.566;2024-03-23T13:41:24;0.90;;;0.50;;
19969;SDS011;10146;47.754;9.566;2024-03-23T13:43:49;0.47;;;0.47;;
19969;SDS011;10146;47.754;9.566;2024-03-23T13:46:15;1.80;;;0.50;;
19969;SDS011;10146;47.754;9.566;2024-03-23T13:48:41;2.65;;;0.68;;
19969;SDS011;10146;47.754;9.566;2024-03-23T13:51:07;1.77;;;0.70;;
19969;SDS011;10146;47.754;9.566;2024-03-23T13:53:33;2.67;;;1.00;;
19969;SDS011;10146;47.754;9.566;2024-03-23T13:55:58;1.58;;;0.70;;
19969;SDS011;10146;47.754;9.566;2024-03-23T13:58:24;1.90;;;1.00;;
19969;SDS011;10146;47.754;9.566;2024-03-23T14:00:52;1.63;;;0.88;;
19969;SDS011;10146;47.754;9.566;2024-03-23T14:03:18;2.65;;;0.85;;
19969;SDS011;10146;47.754;9.566;2024-03-23T14:05:44;2.70;;;1.05;;
19969;SDS011;10146;47.754;9.566;2024-03-23T14:08:12;2.25;;;0.80;;
19969;SDS011;10146;47.754;9.566;2024-03-23T14:10:40;2.55;;;0.82;;
19969;SDS011;10146;47.754;9.566;2024-03-23T14:13:06;3.25;;;0.90;;
19969;SDS011;10146;47.754;9.566;2024-03-23T14:15:32;2.33;;;0.90;;
19969;SDS011;10146;47.754;9.566;2024-03-23T14:17:57;2.15;;;0.88;;
19969;SDS011;10146;47.754;9.566;2024-03-23T14:20:23;4.95;;;1.00;;
19969;SDS011;10146;47.754;9.566;2024-03-23T14:22:51;1.67;;;0.85;;
19969;SDS011;10146;47.754;9.566;2024-03-23T14:25:17;3.13;;;0.88;;
19969;SDS011;10146;47.754;9.566;2024-03-23T14:27:46;1.83;;;0.80;;
19969;SDS011;10146;47.754;9.566;2024-03-23T14:30:12;2.55;;;0.98;;
19969;SDS011;10146;47.754;9.566;2024-03-23T14:32:38;3.45;;;1.10;;
19969;SDS011;10146;47.754;9.566;2024-03-23T14:35:04;3.00;;;1.10;;
19969;SDS011;10146;47.754;9.566;2024-03-23T14:37:31;1.95;;;0.80;;
19969;SDS011;10146;47.754;9.566;2024-03-23T14:39:56;3.72;;;1.00;;
19969;SDS011;10146;47.754;9.566;2024-03-23T14:42:23;4.32;;;1.88;;
19969;SDS011;10146;47.754;9.566;2024-03-23T14:44:49;2.95;;;1.20;;
19969;SDS011;10146;47.754;9.566;2024-03-23T14:47:15;2.78;;;0.95;;
19969;SDS011;10146;47.754;9.566;2024-03-23T14:49:42;3.30;;;1.30;;
19969;SDS011;10146;47.754;9.566;2024-03-23T14:52:12;3.42;;;1.05;;
19969;SDS011;10146;47.754;9.566;2024-03-23T14:54:44;2.67;;;1.10;;
19969;SDS011;10146;47.754;9.566;2024-03-23T14:57:09;3.25;;;1.30;;
19969;SDS011;10146;47.754;9.566;2024-03-23T14:59:36;6.70;;;1.40;;
19969;SDS011;10146;47.754;9.566;2024-03-23T15:02:05;4.60;;;1.15;;
19969;SDS011;10146;47.754;9.566;2024-03-23T15:04:32;3.67;;;1.20;;
19969;SDS011;10146;47.754;9.566;2024-03-23T15:06:57;2.28;;;1.13;;
19969;SDS011;10146;47.754;9.566;2024-03-23T15:09:23;3.05;;;1.10;;
19969;SDS011;10146;47.754;9.566;2024-03-23T15:11:49;4.03;;;1.02;;
19969;SDS011;10146;47.754;9.566;2024-03-23T15:14:14;3.22;;;1.05;;
19969;SDS011;10146;47.754;9.566;2024-03-23T15:16:40;2.83;;;0.90;;
19969;SDS011;10146;47.754;9.566;2024-03-23T15:19:07;3.35;;;1.20;;
19969;SDS011;10146;47.754;9.566;2024-03-23T15:21:33;4.78;;;1.40;;
19969;SDS011;10146;47.754;9.566;2024-03-23T15:23:59;6.78;;;1.17;;
19969;SDS011;10146;47.754;9.566;2024-03-23T15:26:24;3.78;;;1.17;;
19969;SDS011;10146;47.754;9.566;2024-03-23T15:28:50;3.25;;;1.08;;
19969;SDS011;10146;47.754;9.566;2024-03-23T15:31:21;2.65;;;0.90;;
19969;SDS011;10146;47.754;9.566;2024-03-23T15:33:47;2.25;;;1.10;;
19969;SDS011;10146;47.754;9.566;2024-03-23T15:36:13;3.03;;;0.80;;
19969;SDS011;10146;47.754;9.566;2024-03-23T15:38:38;5.20;;;1.08;;
19969;SDS011;10146;47.754;9.566;2024-03-23T15:41:04;3.22;;;1.00;;
19969;SDS011;10146;47.754;9.566;2024-03-23T15:43:30;3.33;;;1.30;;
19969;SDS011;10146;47.754;9.566;2024-03-23T15:45:56;3.75;;;1.00;;
19969;SDS011;10146;47.754;9.566;2024-03-23T15:48:24;1.58;;;0.93;;
19969;SDS011;10146;47.754;9.566;2024-03-23T15:50:52;4.38;;;1.45;;